createdAt,value
2022-12-28T00:01:33.687Z,5.68
2022-12-28T00:05:50.777Z,6.05
2022-12-28T00:10:07.855Z,7.38
2022-12-28T00:14:25.352Z,7.15
2022-12-28T00:18:43.345Z,6.53
2022-12-28T00:23:00.527Z,6.18
2022-12-28T00:27:17.424Z,6.78
2022-12-28T00:31:34.770Z,7.85
2022-12-28T00:35:56.240Z,7.72
2022-12-28T00:40:15.423Z,6.68
2022-12-28T00:44:35.971Z,6.28
2022-12-28T00:48:52.975Z,6.03
2022-12-28T00:53:11.014Z,8.48
2022-12-28T00:57:27.941Z,9.18
2022-12-28T01:01:45.045Z,7.85
2022-12-28T01:06:07.071Z,7.72
2022-12-28T01:10:24.071Z,6.00
2022-12-28T01:14:41.154Z,6.35
2022-12-28T01:19:01.421Z,6.55
2022-12-28T01:23:18.539Z,6.28
2022-12-28T01:27:35.434Z,5.82
2022-12-28T01:31:52.575Z,5.13
2022-12-28T01:36:15.835Z,5.53
2022-12-28T01:40:32.881Z,4.90
2022-12-28T01:44:52.936Z,4.90
2022-12-28T01:49:40.338Z,10.75
2022-12-28T01:53:59.553Z,7.72
2022-12-28T01:58:25.261Z,6.53
2022-12-28T02:02:51.555Z,6.20
2022-12-28T02:07:09.312Z,5.85
2022-12-28T02:11:26.543Z,5.47
2022-12-28T02:15:45.096Z,5.27
2022-12-28T02:20:04.015Z,6.28
2022-12-28T02:24:49.908Z,5.20
2022-12-28T02:29:35.419Z,4.95
2022-12-28T02:34:08.810Z,5.47
2022-12-28T02:38:42.175Z,4.53
2022-12-28T02:43:01.626Z,4.97
2022-12-28T02:47:37.666Z,5.40
2022-12-28T02:52:07.585Z,5.65
2022-12-28T02:56:49.794Z,5.10
2022-12-28T03:01:18.840Z,4.88
2022-12-28T03:06:19.664Z,6.72
2022-12-28T03:10:52.076Z,5.70
2022-12-28T03:15:30.163Z,6.03
2022-12-28T03:20:16.934Z,5.03
2022-12-28T03:24:56.022Z,4.90
2022-12-28T03:29:35.312Z,5.03
2022-12-28T03:34:07.128Z,4.82
2022-12-28T03:38:58.059Z,4.80
2022-12-28T03:43:43.027Z,4.28
2022-12-28T03:48:03.032Z,4.00
2022-12-28T03:52:20.207Z,5.22
2022-12-28T03:56:47.654Z,4.57
2022-12-28T04:01:05.955Z,4.22
2022-12-28T04:05:22.963Z,4.55
2022-12-28T04:09:40.079Z,5.03
2022-12-28T04:13:57.166Z,4.88
2022-12-28T04:18:14.245Z,4.57
2022-12-28T04:22:31.130Z,3.60
2022-12-28T04:26:49.318Z,4.65
2022-12-28T04:35:25.063Z,4.18
2022-12-28T04:39:55.451Z,5.00
2022-12-28T04:44:13.705Z,4.50
2022-12-28T04:48:31.328Z,4.43
2022-12-28T04:52:48.372Z,4.43
2022-12-28T04:57:05.250Z,4.55
2022-12-28T05:01:22.618Z,4.93
2022-12-28T05:05:39.546Z,4.00
2022-12-28T05:09:56.654Z,4.15
2022-12-28T05:14:13.650Z,4.40
2022-12-28T05:18:30.943Z,4.95
2022-12-28T05:22:47.784Z,5.40
2022-12-28T05:27:04.906Z,10.10
2022-12-28T05:31:23.431Z,16.70
2022-12-28T05:35:40.575Z,23.13
2022-12-28T05:39:57.604Z,16.30
2022-12-28T05:44:14.634Z,9.60
2022-12-28T05:48:36.111Z,10.00
2022-12-28T05:52:53.263Z,9.02
2022-12-28T05:57:10.117Z,7.20
2022-12-28T06:01:34.699Z,6.40
2022-12-28T06:05:51.626Z,7.95
2022-12-28T06:10:09.349Z,7.55
2022-12-28T06:14:26.280Z,6.68
2022-12-28T06:18:44.343Z,5.57
2022-12-28T06:23:01.233Z,6.28
2022-12-28T06:27:19.237Z,5.88
2022-12-28T06:31:40.124Z,6.22
2022-12-28T06:35:57.303Z,18.60
2022-12-28T06:40:14.869Z,15.93
2022-12-28T06:44:31.717Z,19.00
2022-12-28T06:48:49.468Z,16.48
2022-12-28T06:53:06.314Z,14.25
2022-12-28T06:57:23.382Z,10.02
2022-12-28T07:01:44.584Z,9.30
2022-12-28T07:06:03.827Z,8.65
2022-12-28T07:10:20.680Z,7.15
2022-12-28T07:14:37.744Z,5.75
2022-12-28T07:18:56.029Z,4.78
2022-12-28T07:23:13.145Z,3.92
2022-12-28T07:27:30.028Z,4.47
2022-12-28T07:31:47.174Z,5.00
2022-12-28T07:36:10.262Z,4.47
2022-12-28T07:40:27.673Z,4.85
2022-12-28T07:44:49.149Z,3.57
2022-12-28T07:49:07.327Z,4.13
2022-12-28T07:53:24.151Z,4.45
2022-12-28T07:57:41.255Z,4.03
2022-12-28T08:01:58.320Z,4.45
2022-12-28T08:06:20.405Z,4.77
2022-12-28T08:10:37.268Z,5.00
2022-12-28T08:14:54.341Z,4.05
2022-12-28T08:19:12.303Z,5.75
2022-12-28T08:23:32.240Z,5.80
2022-12-28T08:27:49.125Z,6.82
2022-12-28T08:32:07.737Z,8.80
2022-12-28T08:36:24.884Z,8.90
2022-12-28T08:40:42.309Z,9.35
2022-12-28T08:44:59.155Z,10.55
2022-12-28T08:49:16.235Z,11.93
2022-12-28T08:53:33.940Z,12.10
2022-12-28T08:57:50.789Z,13.60
2022-12-28T09:02:07.883Z,16.67
2022-12-28T09:06:30.821Z,14.65
2022-12-28T09:10:47.894Z,37.40
2022-12-28T09:15:05.358Z,35.28
2022-12-28T09:19:22.660Z,42.03
2022-12-28T09:23:40.793Z,40.40
2022-12-28T09:27:59.646Z,24.88
2022-12-28T09:32:16.661Z,25.13
2022-12-28T09:36:41.039Z,20.15
2022-12-28T09:40:59.068Z,16.77
2022-12-28T09:45:21.906Z,19.88
2022-12-28T09:49:57.422Z,17.70
2022-12-28T09:54:14.460Z,17.73
2022-12-28T09:58:34.049Z,13.95
2022-12-28T10:03:20.903Z,13.05
2022-12-28T10:07:38.151Z,13.00
2022-12-28T10:11:55.523Z,14.63
2022-12-28T10:16:20.921Z,15.23
2022-12-28T10:20:37.937Z,11.55
2022-12-28T10:24:55.074Z,8.68
2022-12-28T10:29:23.538Z,12.25
2022-12-28T10:33:50.341Z,10.48
2022-12-28T10:38:24.041Z,17.67
2022-12-28T10:42:44.390Z,23.90
2022-12-28T10:47:05.296Z,17.05
2022-12-28T10:51:27.897Z,15.05
2022-12-28T10:55:44.870Z,13.65
2022-12-28T11:00:22.564Z,21.15
2022-12-28T11:04:53.984Z,21.50
2022-12-28T11:09:36.484Z,16.90
2022-12-28T11:14:24.633Z,11.23
2022-12-28T11:18:42.000Z,10.48
2022-12-28T11:22:59.086Z,17.43
2022-12-28T11:27:19.900Z,15.57
2022-12-28T11:32:01.314Z,14.05
2022-12-28T11:36:22.917Z,14.82
2022-12-28T11:40:50.613Z,16.23
2022-12-28T11:45:17.247Z,11.35
2022-12-28T11:49:36.034Z,14.85
2022-12-28T11:54:24.075Z,13.25
2022-12-28T12:03:01.536Z,12.85
2022-12-28T12:07:44.645Z,11.20
2022-12-28T12:12:24.606Z,8.48
2022-12-28T12:16:52.336Z,7.63
2022-12-28T12:21:15.844Z,7.43
2022-12-28T12:25:47.483Z,7.57
2022-12-28T12:30:18.428Z,7.82
2022-12-28T12:34:58.908Z,12.05
2022-12-28T12:39:47.360Z,25.02
2022-12-28T12:44:15.177Z,8.45
2022-12-28T12:49:02.426Z,6.10
2022-12-28T12:54:13.380Z,8.93
2022-12-28T12:59:24.769Z,5.68
2022-12-28T13:03:53.132Z,5.50
2022-12-28T13:08:40.481Z,6.22
2022-12-28T13:13:00.866Z,5.97
2022-12-28T13:17:21.947Z,6.07
2022-12-28T13:21:45.881Z,23.17
2022-12-28T13:26:03.637Z,17.65
2022-12-28T13:30:22.962Z,26.27
2022-12-28T13:34:41.221Z,15.00
2022-12-28T13:44:08.795Z,6.78
2022-12-28T13:48:27.061Z,14.88
2022-12-28T13:52:59.878Z,25.27
2022-12-28T13:57:45.854Z,14.82
2022-12-28T14:01:56.270Z,20.42
2022-12-28T14:06:18.916Z,9.13
2022-12-28T14:10:36.791Z,13.85
2022-12-28T14:14:53.957Z,5.45
2022-12-28T14:19:11.888Z,5.63
2022-12-28T14:23:33.078Z,7.22
2022-12-28T14:28:06.502Z,6.32
2022-12-28T14:32:23.736Z,6.13
2022-12-28T14:36:49.889Z,5.57
2022-12-28T14:41:07.252Z,8.48
2022-12-28T14:46:07.011Z,7.20
2022-12-28T14:50:21.253Z,10.10
2022-12-28T14:55:20.121Z,11.43
2022-12-28T14:59:39.730Z,12.40
2022-12-28T15:03:58.873Z,12.85
2022-12-28T15:08:15.901Z,8.98
2022-12-28T15:12:36.187Z,14.88
2022-12-28T15:16:53.119Z,28.50
2022-12-28T15:21:12.972Z,14.98
2022-12-28T15:25:33.971Z,11.95
2022-12-28T15:30:07.837Z,10.52
2022-12-28T15:34:26.729Z,63.97
2022-12-28T15:38:43.922Z,25.13
2022-12-28T15:43:03.630Z,17.92
2022-12-28T15:47:21.274Z,20.30
2022-12-28T15:51:38.245Z,22.17
2022-12-28T15:56:00.940Z,21.15
2022-12-28T16:00:19.145Z,14.00
2022-12-28T16:04:36.196Z,17.67
2022-12-28T16:08:55.368Z,15.60
2022-12-28T16:13:12.332Z,21.67
2022-12-28T16:17:29.413Z,15.18
2022-12-28T16:21:48.490Z,20.58
2022-12-28T16:26:08.491Z,16.10
2022-12-28T16:30:25.482Z,47.90
2022-12-28T16:34:42.717Z,28.60
2022-12-28T16:39:00.110Z,54.00
2022-12-28T16:43:18.725Z,36.47
2022-12-28T16:47:40.883Z,34.25
2022-12-28T16:52:01.467Z,25.63
2022-12-28T16:56:18.386Z,25.67
2022-12-28T17:00:35.813Z,20.65
2022-12-28T17:04:52.710Z,14.40
2022-12-28T17:09:10.204Z,16.48
2022-12-28T17:13:27.130Z,23.23
2022-12-28T17:17:44.497Z,25.90
2022-12-28T17:22:01.863Z,23.43
2022-12-28T17:26:19.311Z,29.75
2022-12-28T17:30:36.284Z,24.67
2022-12-28T17:34:53.732Z,26.80
2022-12-28T17:39:10.691Z,55.13
2022-12-28T17:43:28.719Z,29.80
2022-12-28T17:47:45.883Z,30.23
2022-12-28T17:52:03.425Z,27.13
2022-12-28T17:56:20.775Z,16.48
2022-12-28T18:00:37.709Z,12.32
2022-12-28T18:04:54.752Z,11.25
2022-12-28T18:09:11.855Z,14.40
2022-12-28T18:13:29.018Z,17.77
2022-12-28T18:17:46.010Z,16.40
2022-12-28T18:22:03.523Z,16.10
2022-12-28T18:26:24.032Z,35.30
2022-12-28T18:30:42.640Z,24.50
2022-12-28T18:34:59.542Z,31.67
2022-12-28T18:39:16.649Z,33.35
2022-12-28T18:43:33.563Z,27.80
2022-12-28T18:47:50.614Z,23.23
2022-12-28T18:52:07.875Z,23.15
2022-12-28T18:56:24.970Z,20.47
2022-12-28T19:00:42.073Z,26.20
2022-12-28T19:04:59.054Z,26.42
2022-12-28T19:09:16.351Z,33.67
2022-12-28T19:13:35.978Z,35.65
2022-12-28T19:17:52.998Z,30.05
2022-12-28T19:22:10.074Z,30.33
2022-12-28T19:26:27.107Z,25.40
2022-12-28T19:30:44.215Z,29.83
2022-12-28T19:35:01.029Z,44.38
2022-12-28T19:39:18.225Z,41.78
2022-12-28T19:43:35.997Z,41.88
2022-12-28T19:47:53.043Z,46.63
2022-12-28T19:52:10.552Z,43.65
2022-12-28T19:56:28.255Z,43.60
2022-12-28T20:00:45.117Z,39.70
2022-12-28T20:05:02.386Z,35.47
2022-12-28T20:09:19.304Z,34.03
2022-12-28T20:13:36.420Z,32.88
2022-12-28T20:17:53.466Z,30.40
2022-12-28T20:22:10.690Z,26.73
2022-12-28T20:26:29.141Z,24.30
2022-12-28T20:30:51.051Z,22.83
2022-12-28T20:35:08.037Z,21.35
2022-12-28T20:39:25.092Z,19.23
2022-12-28T20:43:42.065Z,18.67
2022-12-28T20:47:59.061Z,18.15
2022-12-28T20:52:16.175Z,17.52
2022-12-28T20:56:35.110Z,20.88
2022-12-28T21:00:52.354Z,21.30
2022-12-28T21:05:09.853Z,20.55
2022-12-28T21:09:27.004Z,15.67
2022-12-28T21:13:44.869Z,12.43
2022-12-28T21:18:03.050Z,14.13
2022-12-28T21:22:20.094Z,12.40
2022-12-28T21:26:37.500Z,11.75
2022-12-28T21:30:56.060Z,10.73
2022-12-28T21:35:13.254Z,11.73
2022-12-28T21:39:30.073Z,9.82
2022-12-28T21:43:47.157Z,11.73
2022-12-28T21:48:04.356Z,12.50
2022-12-28T21:52:21.906Z,12.25
2022-12-28T21:56:39.926Z,12.43
2022-12-28T22:01:18.983Z,12.60
2022-12-28T22:05:47.727Z,12.98
2022-12-28T22:10:23.853Z,12.85
2022-12-28T22:14:40.942Z,11.90
2022-12-28T22:19:02.738Z,11.73
2022-12-28T22:23:20.597Z,11.18
2022-12-28T22:27:37.514Z,12.30
2022-12-28T22:31:55.935Z,15.38
2022-12-28T22:36:16.769Z,13.52
2022-12-28T22:40:33.647Z,11.32
2022-12-28T22:44:51.538Z,12.25
2022-12-28T22:49:08.363Z,11.80
2022-12-28T22:53:25.411Z,13.10
2022-12-28T22:57:42.445Z,12.52
2022-12-28T23:01:59.926Z,12.60
2022-12-28T23:06:19.510Z,14.85
2022-12-28T23:10:36.560Z,12.02
2022-12-28T23:15:12.437Z,13.75
2022-12-28T23:19:49.306Z,11.52
2022-12-28T23:24:32.371Z,10.25
2022-12-28T23:28:49.508Z,8.13
2022-12-28T23:33:06.471Z,8.18
2022-12-28T23:37:23.579Z,7.82
2022-12-28T23:41:49.622Z,8.40
2022-12-28T23:46:06.675Z,8.05
2022-12-28T23:50:23.841Z,8.32
2022-12-28T23:54:40.705Z,8.13
2022-12-28T23:58:58.020Z,9.35
